Time;durP1;ratioP1;P1;durP2;ratioP2;P2;SDS_P1;SDS_P2;PMS_P1;PMS_P2;Temp;Humidity;BMP_temperature;BMP_pressure;BME280_temperature;BME280_humidity;BME280_pressure;Samples;Min_cycle;Max_cycle;Signal;HPM_P1;HPM_P2
2022/07/09 00:00:36;;;;;;;1.40;0.43;;;18.90;99.90;;;;;;4994718;28;20485;-68
2022/07/09 00:03:02;;;;;;;4.90;0.30;;;18.90;99.90;;;;;;4995050;28;20030;-68
2022/07/09 00:05:27;;;;;;;0.38;0.38;;;18.80;99.90;;;;;;4977864;28;20030;-68
2022/07/09 00:07:53;;;;;;;0.10;0.10;;;18.90;99.90;;;;;;4995063;28;20030;-68
2022/07/09 00:10:19;;;;;;;0.13;0.13;;;19.20;99.90;;;;;;4994990;28;20030;-68
2022/07/09 00:12:45;;;;;;;0.30;0.30;;;19.30;99.90;;;;;;4994850;28;20068;-69
2022/07/09 00:15:12;;;;;;;0.10;0.00;;;19.50;99.50;;;;;;4977378;28;20509;-68
2022/07/09 00:17:37;;;;;;;1.08;0.52;;;19.50;99.30;;;;;;4993627;28;20405;-68
2022/07/09 00:20:05;;;;;;;0.00;0.00;;;19.50;99.30;;;;;;4994689;28;20117;-68
2022/07/09 00:22:32;;;;;;;0.03;0.03;;;19.50;99.40;;;;;;4994370;28;20065;-68
2022/07/09 00:24:59;;;;;;;0.13;0.13;;;19.50;99.40;;;;;;4994488;28;20032;-67
2022/07/09 00:27:25;;;;;;;0.30;0.20;;;19.60;99.30;;;;;;4994586;28;20393;-68
2022/07/09 00:29:51;;;;;;;0.00;0.00;;;19.60;99.30;;;;;;4977107;28;20044;-68
2022/07/09 00:32:18;;;;;;;0.20;0.10;;;19.50;99.50;;;;;;4977253;28;20069;-68
2022/07/09 00:34:44;;;;;;;0.00;0.00;;;19.60;99.30;;;;;;4994501;28;20053;-68
2022/07/09 00:37:10;;;;;;;0.52;0.28;;;19.60;99.50;;;;;;4994278;28;20054;-68
2022/07/09 00:39:36;;;;;;;0.00;0.00;;;19.70;99.50;;;;;;4994669;28;20054;-68
2022/07/09 00:42:11;;;;;;;0.00;0.00;;;19.50;99.80;;;;;;4976673;28;20027;-69
2022/07/09 00:44:38;;;;;;;0.20;0.20;;;19.40;99.90;;;;;;4976949;28;20070;-68
2022/07/09 00:47:06;;;;;;;0.73;0.73;;;19.40;99.90;;;;;;4976160;28;20563;-68
2022/07/09 00:49:38;;;;;;;0.00;0.00;;;19.40;99.90;;;;;;4976749;28;20037;-69
2022/07/09 00:52:06;;;;;;;0.05;0.05;;;19.40;99.90;;;;;;4977223;28;20026;-69
2022/07/09 00:54:32;;;;;;;1.58;0.80;;;19.40;99.90;;;;;;4976966;28;20034;-68
2022/07/09 00:56:58;;;;;;;0.15;0.10;;;19.30;99.90;;;;;;4977250;28;20414;-68
2022/07/09 00:59:24;;;;;;;1.75;1.10;;;19.20;99.90;;;;;;4976461;28;20034;-69
2022/07/09 01:01:51;;;;;;;0.05;0.05;;;19.20;99.90;;;;;;4976492;28;20027;-68
2022/07/09 01:04:17;;;;;;;0.63;0.55;;;19.20;99.90;;;;;;4955656;28;20482;-69
2022/07/09 01:06:43;;;;;;;0.05;0.05;;;19.10;99.90;;;;;;4977704;28;20049;-69
2022/07/09 01:09:10;;;;;;;0.10;0.10;;;19.10;99.90;;;;;;4966511;28;20019;-69
2022/07/09 01:11:36;;;;;;;0.00;0.00;;;18.90;99.90;;;;;;4951914;28;20490;-69
2022/07/09 01:14:02;;;;;;;0.00;0.00;;;18.80;99.90;;;;;;4976136;28;20042;-69
2022/07/09 01:16:37;;;;;;;0.45;0.43;;;18.60;99.90;;;;;;4960544;28;20031;-69
2022/07/09 01:19:04;;;;;;;0.30;0.20;;;18.50;99.90;;;;;;4974168;28;20033;-69
2022/07/09 01:21:30;;;;;;;0.30;0.30;;;18.40;99.90;;;;;;4957238;28;20041;-69
2022/07/09 01:23:56;;;;;;;0.00;0.00;;;18.20;99.90;;;;;;4981096;28;20030;-69
2022/07/09 01:26:23;;;;;;;1.23;0.75;;;18.10;99.90;;;;;;4992537;28;20027;-68
2022/07/09 01:28:49;;;;;;;0.30;0.30;;;18.00;99.90;;;;;;4975993;28;20026;-68
2022/07/09 01:31:15;;;;;;;0.95;0.75;;;17.90;99.90;;;;;;4993589;28;20442;-69
2022/07/09 01:33:42;;;;;;;0.00;0.00;;;17.80;99.90;;;;;;4993123;28;20133;-68
2022/07/09 01:36:08;;;;;;;0.32;0.30;;;17.70;99.90;;;;;;4993730;28;20081;-68
2022/07/09 01:38:33;;;;;;;0.13;0.13;;;17.90;99.90;;;;;;4976032;28;20088;-68
2022/07/09 01:40:59;;;;;;;0.20;0.20;;;17.90;99.90;;;;;;4986110;28;20495;-68
2022/07/09 01:43:25;;;;;;;0.00;0.00;;;18.00;99.90;;;;;;4973415;28;20038;-69
2022/07/09 01:45:51;;;;;;;0.45;0.32;;;17.80;99.90;;;;;;4956611;28;20113;-68
2022/07/09 01:48:17;;;;;;;0.70;0.52;;;17.70;99.90;;;;;;4956451;28;20023;-68
2022/07/09 01:50:43;;;;;;;0.00;0.00;;;17.70;99.90;;;;;;4956556;28;20045;-68
2022/07/09 01:53:09;;;;;;;1.85;0.43;;;17.70;99.90;;;;;;4988189;28;20399;-69
2022/07/09 01:55:35;;;;;;;0.00;0.00;;;17.60;99.90;;;;;;4956498;28;20031;-69
2022/07/09 01:58:01;;;;;;;0.60;0.60;;;17.50;99.90;;;;;;4956227;28;20489;-69
2022/07/09 02:00:28;;;;;;;0.63;0.63;;;17.50;99.90;;;;;;4973171;28;20022;-69
2022/07/09 02:02:56;;;;;;;0.20;0.15;;;17.40;99.90;;;;;;4973508;28;20134;-69
2022/07/09 02:05:22;;;;;;;0.50;0.40;;;17.30;99.90;;;;;;4973498;28;20058;-68
2022/07/09 02:07:49;;;;;;;1.35;0.38;;;17.30;99.90;;;;;;4956144;28;20442;-69
2022/07/09 02:10:15;;;;;;;0.20;0.10;;;17.30;99.90;;;;;;4956083;28;20027;-69
2022/07/09 02:12:42;;;;;;;0.00;0.00;;;17.30;99.90;;;;;;4955921;28;20399;-70
2022/07/09 02:15:10;;;;;;;0.00;0.00;;;17.20;99.90;;;;;;4962813;28;20026;-68
2022/07/09 02:17:36;;;;;;;0.00;0.00;;;17.00;99.90;;;;;;4975586;28;20072;-68
2022/07/09 02:20:04;;;;;;;3.10;0.43;;;16.80;99.90;;;;;;4992360;28;20026;-68
2022/07/09 02:22:31;;;;;;;0.10;0.10;;;16.70;99.90;;;;;;4975456;28;20030;-68
2022/07/09 02:24:57;;;;;;;0.00;0.00;;;16.70;99.90;;;;;;4992765;28;20026;-69
2022/07/09 02:27:22;;;;;;;0.13;0.13;;;16.60;99.90;;;;;;4992653;28;20038;-68
2022/07/09 02:29:48;;;;;;;0.22;0.20;;;16.70;99.90;;;;;;4992404;28;20130;-68
2022/07/09 02:32:14;;;;;;;0.10;0.10;;;16.60;99.90;;;;;;4974768;28;20030;-67
2022/07/09 02:34:39;;;;;;;0.30;0.30;;;16.70;99.90;;;;;;4992195;28;20512;-67
2022/07/09 02:37:06;;;;;;;0.30;0.20;;;16.50;99.90;;;;;;4991210;28;20482;-68
2022/07/09 02:39:32;;;;;;;1.55;0.65;;;16.30;99.90;;;;;;4992472;28;20363;-69
2022/07/09 02:41:58;;;;;;;2.83;0.40;;;16.20;99.90;;;;;;4992390;28;20031;-68
2022/07/09 02:44:23;;;;;;;0.20;0.10;;;16.30;99.90;;;;;;4992068;28;20033;-68
2022/07/09 02:46:49;;;;;;;0.10;0.10;;;16.20;99.90;;;;;;4975161;28;20117;-69
2022/07/09 02:49:15;;;;;;;1.05;0.60;;;16.30;99.90;;;;;;4974780;28;20022;-69
2022/07/09 02:51:41;;;;;;;0.75;0.50;;;16.40;99.90;;;;;;4991979;28;20030;-68
2022/07/09 02:54:07;;;;;;;0.22;0.22;;;16.30;99.90;;;;;;4991755;28;20027;-69
2022/07/09 02:56:33;;;;;;;0.20;0.20;;;16.40;99.90;;;;;;4991996;28;20033;-69
2022/07/09 02:58:58;;;;;;;0.00;0.00;;;16.40;99.90;;;;;;4992091;28;20038;-68
2022/07/09 03:01:24;;;;;;;0.13;0.13;;;16.40;99.90;;;;;;4974431;28;20113;-69
2022/07/09 03:03:50;;;;;;;0.52;0.52;;;16.40;99.90;;;;;;4974528;28;20026;-68
2022/07/09 03:06:16;;;;;;;0.00;0.00;;;16.50;99.90;;;;;;4974747;28;20398;-69
2022/07/09 03:08:42;;;;;;;0.38;0.25;;;16.50;99.90;;;;;;4973810;28;20073;-68
2022/07/09 03:11:08;;;;;;;0.10;0.10;;;16.60;99.90;;;;;;4992151;28;20030;-69
2022/07/09 03:13:35;;;;;;;0.17;0.17;;;16.60;99.90;;;;;;4990147;28;20045;-68
2022/07/09 03:16:02;;;;;;;1.60;1.05;;;16.70;99.90;;;;;;4977236;28;20459;-69
2022/07/09 03:18:28;;;;;;;0.00;0.00;;;16.70;99.90;;;;;;4987531;28;20133;-68
2022/07/09 03:20:54;;;;;;;0.00;0.00;;;16.70;99.90;;;;;;4972508;28;20503;-68
2022/07/09 03:23:20;;;;;;;0.55;0.55;;;16.70;99.90;;;;;;4972195;28;20081;-68
2022/07/09 03:25:45;;;;;;;0.10;0.08;;;16.70;99.90;;;;;;4972090;28;20031;-67
2022/07/09 03:28:11;;;;;;;0.10;0.10;;;16.70;99.90;;;;;;4972238;28;20034;-68
2022/07/09 03:30:37;;;;;;;0.00;0.00;;;16.70;99.90;;;;;;4972272;28;20436;-67
2022/07/09 03:33:03;;;;;;;0.10;0.10;;;16.70;99.90;;;;;;4971714;28;20125;-68
2022/07/09 03:35:29;;;;;;;0.43;0.17;;;16.70;99.90;;;;;;4972508;28;20047;-68
2022/07/09 03:37:55;;;;;;;0.00;0.00;;;16.70;99.90;;;;;;4972171;28;20027;-68
2022/07/09 03:40:20;;;;;;;0.32;0.25;;;16.60;99.90;;;;;;4954588;28;20031;-68
2022/07/09 03:42:46;;;;;;;2.05;1.08;;;16.60;99.90;;;;;;4972008;28;20035;-68
2022/07/09 03:45:12;;;;;;;0.65;0.30;;;16.70;99.90;;;;;;4972380;28;20027;-68
2022/07/09 03:47:38;;;;;;;0.05;0.05;;;16.80;99.90;;;;;;4972035;28;20072;-68
2022/07/09 03:50:05;;;;;;;0.50;0.50;;;16.80;99.90;;;;;;4954995;28;20113;-68
2022/07/09 03:52:30;;;;;;;0.70;0.20;;;16.80;99.90;;;;;;4972097;28;20031;-68
2022/07/09 03:54:56;;;;;;;0.10;0.10;;;16.90;99.90;;;;;;4971575;28;20165;-68
2022/07/09 03:57:22;;;;;;;0.00;0.00;;;17.00;99.90;;;;;;4955110;28;20037;-68
2022/07/09 03:59:47;;;;;;;0.52;0.47;;;17.10;99.90;;;;;;4971896;28;20089;-69
2022/07/09 04:02:13;;;;;;;0.30;0.30;;;17.20;99.90;;;;;;4971962;28;20094;-69
2022/07/09 04:04:40;;;;;;;0.00;0.00;;;17.20;99.90;;;;;;4986757;28;20535;-69
2022/07/09 04:07:05;;;;;;;0.00;0.00;;;17.20;99.90;;;;;;4972130;28;20475;-69
2022/07/09 04:09:31;;;;;;;22.80;0.88;;;17.20;99.90;;;;;;4971606;28;20034;-69
2022/07/09 04:11:57;;;;;;;2.72;0.93;;;17.10;99.90;;;;;;4954748;28;20038;-68
2022/07/09 04:14:22;;;;;;;0.10;0.10;;;17.00;99.90;;;;;;4989778;23;20038;-71
2022/07/09 04:16:48;;;;;;;0.20;0.10;;;16.80;99.90;;;;;;4979921;28;20031;-72
2022/07/09 04:19:14;;;;;;;0.28;0.28;;;16.80;99.90;;;;;;4954277;28;20474;-72
2022/07/09 04:21:40;;;;;;;0.00;0.00;;;16.80;99.90;;;;;;4957853;28;20027;-72
2022/07/09 04:24:05;;;;;;;0.05;0.05;;;16.70;99.90;;;;;;4974360;28;20085;-72
2022/07/09 04:26:31;;;;;;;7.90;0.65;;;16.70;99.90;;;;;;4975721;28;20429;-72
2022/07/09 04:28:57;;;;;;;1.63;1.52;;;16.70;99.90;;;;;;4974218;28;20130;-72
2022/07/09 04:31:23;;;;;;;0.10;0.10;;;16.60;99.90;;;;;;4975308;28;20027;-72
2022/07/09 04:33:49;;;;;;;0.17;0.17;;;16.50;99.90;;;;;;4973773;28;20513;-73
2022/07/09 04:36:14;;;;;;;3.00;0.75;;;16.50;99.90;;;;;;4975110;28;20049;-73
2022/07/09 04:38:40;;;;;;;0.20;0.20;;;16.40;99.90;;;;;;4973730;28;20035;-73
2022/07/09 04:41:06;;;;;;;1.02;0.47;;;16.50;99.90;;;;;;4957460;28;20039;-73
2022/07/09 04:43:32;;;;;;;0.15;0.15;;;16.50;99.90;;;;;;4974723;28;20026;-73
2022/07/09 04:45:59;;;;;;;0.20;0.20;;;16.50;99.90;;;;;;4974904;28;20478;-73
2022/07/09 04:48:25;;;;;;;0.10;0.10;;;16.60;99.90;;;;;;4974811;28;20031;-73
2022/07/09 04:50:51;;;;;;;0.00;0.00;;;16.60;99.90;;;;;;4974570;28;20042;-73
2022/07/09 04:53:17;;;;;;;0.00;0.00;;;16.70;99.90;;;;;;4974543;28;20125;-73
2022/07/09 04:55:42;;;;;;;2.08;1.75;;;16.80;99.90;;;;;;4974454;28;20117;-73
2022/07/09 04:58:09;;;;;;;0.28;0.28;;;16.80;99.90;;;;;;4975016;28;20113;-73
2022/07/09 05:00:35;;;;;;;0.30;0.25;;;16.90;99.90;;;;;;4974445;28;20046;-73
2022/07/09 05:03:01;;;;;;;0.08;0.08;;;17.00;99.90;;;;;;4973194;28;20027;-73
2022/07/09 05:05:27;;;;;;;0.82;0.60;;;17.00;99.90;;;;;;4974761;28;20470;-73
2022/07/09 05:07:53;;;;;;;0.40;0.40;;;17.00;99.90;;;;;;4973308;28;20038;-73
2022/07/09 05:10:19;;;;;;;0.47;0.30;;;17.10;99.90;;;;;;4974391;28;20042;-73
2022/07/09 05:12:46;;;;;;;1.45;1.20;;;17.20;99.90;;;;;;4974584;28;20027;-73
2022/07/09 05:15:14;;;;;;;0.50;0.50;;;17.30;99.90;;;;;;4981771;28;20026;-73
2022/07/09 05:17:41;;;;;;;0.10;0.10;;;17.10;99.90;;;;;;4993687;28;20030;-73
2022/07/09 05:20:09;;;;;;;0.03;0.03;;;17.20;99.90;;;;;;4993730;28;20030;-73
2022/07/09 05:22:37;;;;;;;0.00;0.00;;;17.20;99.90;;;;;;4993832;28;20030;-73
2022/07/09 05:25:04;;;;;;;0.20;0.20;;;17.20;99.90;;;;;;4975935;28;20064;-73
2022/07/09 05:27:30;;;;;;;0.10;0.10;;;17.10;99.90;;;;;;4976408;28;20081;-72
2022/07/09 05:29:57;;;;;;;0.30;0.20;;;17.30;99.90;;;;;;4993340;28;20395;-67
2022/07/09 05:32:22;;;;;;;0.10;0.10;;;17.30;99.90;;;;;;4975313;28;20062;-72
2022/07/09 05:34:48;;;;;;;0.20;0.20;;;17.30;99.90;;;;;;4975606;28;20030;-72
2022/07/09 05:37:14;;;;;;;0.43;0.32;;;17.20;99.90;;;;;;4992032;28;20034;-71
2022/07/09 05:39:41;;;;;;;0.40;0.40;;;17.20;99.90;;;;;;4975445;28;20483;-71
2022/07/09 05:42:06;;;;;;;0.75;0.30;;;17.30;99.90;;;;;;4972263;28;20031;-74
2022/07/09 05:44:32;;;;;;;0.22;0.20;;;17.40;99.90;;;;;;4992988;28;20540;-73
2022/07/09 05:46:58;;;;;;;0.85;0.85;;;17.40;99.90;;;;;;4976021;28;20732;-71
2022/07/09 05:49:25;;;;;;;0.88;0.73;;;17.50;99.90;;;;;;4975843;28;20027;-68
2022/07/09 05:51:51;;;;;;;3.17;2.10;;;17.60;99.90;;;;;;4992978;28;20034;-67
2022/07/09 05:54:17;;;;;;;0.00;0.00;;;17.60;99.90;;;;;;4992937;28;20065;-68
2022/07/09 05:56:42;;;;;;;3.88;0.88;;;17.50;99.90;;;;;;4992780;28;20069;-67
2022/07/09 05:59:08;;;;;;;0.00;0.00;;;17.50;99.90;;;;;;4992520;28;20113;-68
2022/07/09 06:01:39;;;;;;;1.02;0.63;;;17.50;99.90;;;;;;4982981;28;20035;-68
2022/07/09 06:04:05;;;;;;;0.10;0.10;;;17.50;99.90;;;;;;4973481;28;20037;-68
2022/07/09 06:06:31;;;;;;;0.45;0.38;;;17.50;99.90;;;;;;4972535;28;20033;-69
2022/07/09 06:08:57;;;;;;;1.60;1.50;;;17.60;99.90;;;;;;4973559;28;20030;-68
2022/07/09 06:11:23;;;;;;;0.08;0.08;;;17.60;99.90;;;;;;4940279;28;20038;-68
2022/07/09 06:13:48;;;;;;;0.70;0.65;;;17.70;99.90;;;;;;4972950;28;20042;-68
2022/07/09 06:16:15;;;;;;;0.38;0.20;;;17.70;99.90;;;;;;4973213;28;20066;-67
2022/07/09 06:18:40;;;;;;;14.18;1.00;;;17.70;99.90;;;;;;4976560;28;20034;-67
2022/07/09 06:21:06;;;;;;;0.40;0.40;;;17.80;99.90;;;;;;4992728;28;20061;-67
2022/07/09 06:23:32;;;;;;;0.65;0.65;;;17.90;99.90;;;;;;4992404;28;20101;-67
2022/07/09 06:25:57;;;;;;;0.00;0.00;;;18.00;99.90;;;;;;4992615;28;20034;-68
2022/07/09 06:28:23;;;;;;;0.43;0.43;;;18.20;99.90;;;;;;4975087;28;20097;-68
2022/07/09 06:30:49;;;;;;;0.43;0.30;;;18.30;99.90;;;;;;4992210;28;20422;-67
2022/07/09 06:33:15;;;;;;;0.25;0.25;;;18.30;99.90;;;;;;4975060;28;20033;-68
2022/07/09 06:35:40;;;;;;;0.47;0.47;;;18.40;99.90;;;;;;4991164;28;20039;-68
2022/07/09 06:38:06;;;;;;;0.05;0.05;;;18.50;99.90;;;;;;4992279;28;20038;-68
2022/07/09 06:40:33;;;;;;;0.88;0.73;;;18.70;99.90;;;;;;4992091;28;20550;-67
2022/07/09 06:42:58;;;;;;;0.45;0.45;;;18.80;99.90;;;;;;4991243;28;20505;-67
2022/07/09 06:45:24;;;;;;;0.75;0.65;;;18.90;99.90;;;;;;4987050;28;20031;-66
2022/07/09 06:47:50;;;;;;;1.55;1.00;;;19.00;99.90;;;;;;4971965;28;20023;-66
2022/07/09 06:50:15;;;;;;;0.52;0.47;;;18.90;99.90;;;;;;4991800;28;20034;-71
2022/07/09 06:52:41;;;;;;;0.13;0.13;;;19.00;99.90;;;;;;4991596;28;20141;-72
2022/07/09 06:55:08;;;;;;;0.30;0.30;;;19.00;99.90;;;;;;4974170;28;20035;-71
2022/07/09 06:57:34;;;;;;;1.63;1.50;;;19.10;99.90;;;;;;4954870;28;20035;-74
2022/07/09 07:00:00;;;;;;;0.35;0.35;;;19.20;99.90;;;;;;4971776;28;20035;-72
2022/07/09 07:02:25;;;;;;;0.20;0.17;;;19.10;99.90;;;;;;4972565;28;20379;-72
2022/07/09 07:04:51;;;;;;;3.00;0.55;;;19.30;99.90;;;;;;4972167;28;20081;-73
2022/07/09 07:07:17;;;;;;;0.73;0.68;;;19.40;99.90;;;;;;4972162;28;20482;-71
2022/07/09 07:09:43;;;;;;;0.10;0.10;;;19.40;99.90;;;;;;4970756;28;20041;-72
2022/07/09 07:12:08;;;;;;;0.88;0.88;;;19.50;99.90;;;;;;4972214;28;20038;-73
2022/07/09 07:14:34;;;;;;;0.75;0.75;;;19.60;99.90;;;;;;4954630;28;20039;-72
2022/07/09 07:17:00;;;;;;;0.47;0.40;;;19.80;99.90;;;;;;4971850;28;20049;-72
2022/07/09 07:19:26;;;;;;;0.38;0.38;;;19.90;99.90;;;;;;4972234;28;20034;-71
2022/07/09 07:21:51;;;;;;;37.35;1.88;;;20.00;99.90;;;;;;4954611;28;20033;-69
2022/07/09 07:24:17;;;;;;;0.80;0.70;;;19.90;99.90;;;;;;4972327;28;20562;-67
2022/07/09 07:26:43;;;;;;;0.30;0.30;;;20.00;99.90;;;;;;4972072;28;20031;-67
2022/07/09 07:29:09;;;;;;;0.10;0.10;;;20.10;99.90;;;;;;4971626;28;20144;-67
2022/07/09 07:31:34;;;;;;;1.77;1.30;;;20.30;99.90;;;;;;4971926;28;20034;-68
2022/07/09 07:34:00;;;;;;;0.30;0.28;;;20.40;99.90;;;;;;4971899;28;20098;-68
2022/07/09 07:36:26;;;;;;;1.45;1.17;;;20.50;99.90;;;;;;4971804;28;20086;-67
2022/07/09 07:38:53;;;;;;;0.65;0.47;;;20.70;99.90;;;;;;4954685;28;20031;-68
2022/07/09 07:41:20;;;;;;;2.75;1.60;;;20.70;99.90;;;;;;4954604;28;20031;-67
2022/07/09 07:43:46;;;;;;;0.00;0.00;;;20.80;99.90;;;;;;4938453;28;20079;-67
2022/07/09 07:46:13;;;;;;;0.20;0.20;;;21.00;99.90;;;;;;4971903;28;20022;-68
2022/07/09 07:48:41;;;;;;;0.55;0.43;;;21.10;99.90;;;;;;4971644;28;20503;-67
2022/07/09 07:51:08;;;;;;;0.45;0.45;;;21.20;99.90;;;;;;4955110;28;20034;-68
2022/07/09 07:53:35;;;;;;;1.50;0.60;;;21.30;99.90;;;;;;4971479;28;20034;-66
2022/07/09 07:56:05;;;;;;;0.20;0.13;;;21.40;99.90;;;;;;4957472;28;20038;-67
2022/07/09 07:58:31;;;;;;;7.45;1.20;;;21.30;99.90;;;;;;4975073;28;20615;-68
2022/07/09 08:00:57;;;;;;;0.30;0.30;;;21.50;99.90;;;;;;4976367;28;20129;-68
2022/07/09 08:03:23;;;;;;;0.22;0.22;;;21.70;99.90;;;;;;4994796;28;20074;-67
2022/07/09 08:05:49;;;;;;;0.65;0.65;;;21.70;99.90;;;;;;4977468;28;20030;-67
2022/07/09 08:08:15;;;;;;;0.55;0.25;;;21.70;99.90;;;;;;4995161;28;20462;-74
2022/07/09 08:10:41;;;;;;;0.65;0.65;;;21.60;99.90;;;;;;4994668;28;20038;-72
2022/07/09 08:13:07;;;;;;;0.70;0.57;;;21.80;99.90;;;;;;4976989;28;20474;-71
2022/07/09 08:15:32;;;;;;;0.65;0.65;;;22.00;99.90;;;;;;4976230;28;20044;-71
2022/07/09 08:17:58;;;;;;;0.93;0.40;;;22.20;99.90;;;;;;4994094;28;20038;-71
2022/07/09 08:20:24;;;;;;;0.47;0.43;;;22.40;99.90;;;;;;4976787;28;20022;-70
2022/07/09 08:22:50;;;;;;;0.13;0.13;;;22.50;99.90;;;;;;4994772;28;20077;-71
2022/07/09 08:25:15;;;;;;;3.53;0.77;;;22.60;99.90;;;;;;4977386;28;20034;-71
2022/07/09 08:27:41;;;;;;;3.13;0.90;;;22.60;99.70;;;;;;4994691;28;20022;-71
2022/07/09 08:30:07;;;;;;;0.52;0.52;;;22.70;99.10;;;;;;4976954;28;20038;-71
2022/07/09 08:32:33;;;;;;;1.67;0.85;;;22.80;99.20;;;;;;4994386;28;20854;-71
2022/07/09 08:34:59;;;;;;;0.52;0.38;;;22.80;98.90;;;;;;4994533;28;20065;-71
2022/07/09 08:37:25;;;;;;;0.85;0.82;;;22.90;99.10;;;;;;4994319;28;20065;-71
2022/07/09 08:39:51;;;;;;;0.40;0.40;;;22.90;98.50;;;;;;4994281;28;20022;-71
2022/07/09 08:42:16;;;;;;;0.25;0.25;;;23.00;98.10;;;;;;4976460;28;20034;-71
2022/07/09 08:44:47;;;;;;;0.35;0.35;;;23.30;98.10;;;;;;4976396;28;20026;-71
2022/07/09 08:47:15;;;;;;;0.20;0.20;;;23.40;97.70;;;;;;4961436;28;20505;-70
2022/07/09 08:49:42;;;;;;;0.20;0.20;;;23.60;97.70;;;;;;4994044;28;20080;-70
2022/07/09 08:52:09;;;;;;;0.40;0.38;;;23.70;97.20;;;;;;4976898;28;20061;-70
2022/07/09 08:54:39;;;;;;;1.75;0.77;;;23.70;96.60;;;;;;4969627;28;20126;-70
2022/07/09 08:57:05;;;;;;;0.10;0.10;;;23.70;96.00;;;;;;4974434;28;20031;-70
2022/07/09 08:59:32;;;;;;;0.00;0.00;;;23.90;95.70;;;;;;4956207;28;20066;-71
2022/07/09 09:02:04;;;;;;;0.10;0.10;;;23.90;95.70;;;;;;4957001;28;20106;-72
2022/07/09 09:04:31;;;;;;;1.05;0.75;;;23.90;95.90;;;;;;4957319;28;20475;-71
2022/07/09 09:06:57;;;;;;;0.25;0.25;;;23.90;95.70;;;;;;4973674;28;20062;-71
2022/07/09 09:09:22;;;;;;;0.30;0.30;;;23.90;95.90;;;;;;4974230;28;20031;-71
2022/07/09 09:11:49;;;;;;;7.00;0.30;;;23.90;95.30;;;;;;4974242;28;20479;-71
2022/07/09 09:14:22;;;;;;;0.13;0.13;;;24.10;95.20;;;;;;4956696;28;20035;-72
2022/07/09 09:16:49;;;;;;;2.08;1.15;;;24.30;94.80;;;;;;4968419;28;20054;-72
2022/07/09 09:19:15;;;;;;;0.32;0.32;;;24.30;93.60;;;;;;4975951;28;20030;-72
2022/07/09 09:21:40;;;;;;;0.63;0.52;;;24.40;93.60;;;;;;4976620;28;20441;-72
2022/07/09 09:24:06;;;;;;;1.15;0.50;;;24.40;94.10;;;;;;4975990;28;20418;-72
2022/07/09 09:26:35;;;;;;;0.00;0.00;;;24.50;94.10;;;;;;4975918;28;20118;-71
2022/07/09 09:29:03;;;;;;;0.52;0.47;;;24.40;93.70;;;;;;4960094;28;20046;-71
2022/07/09 09:31:32;;;;;;;0.45;0.45;;;24.40;93.40;;;;;;4993452;28;20053;-72
2022/07/09 09:34:14;;;;;;;0.20;0.20;;;24.40;93.20;;;;;;4993160;28;20041;-72
2022/07/09 09:36:43;;;;;;;0.82;0.50;;;24.30;93.30;;;;;;4976150;28;20026;-72
2022/07/09 09:39:21;;;;;;;0.25;0.03;;;24.30;93.60;;;;;;4993302;28;20038;-71
2022/07/09 09:41:50;;;;;;;0.43;0.43;;;24.30;93.60;;;;;;4992832;28;20394;-71
2022/07/09 09:44:20;;;;;;;0.10;0.08;;;24.20;93.80;;;;;;4992993;28;20078;-70
2022/07/09 09:46:47;;;;;;;0.77;0.77;;;24.10;93.70;;;;;;4964788;28;20030;-71
2022/07/09 09:49:16;;;;;;;0.20;0.20;;;24.10;93.80;;;;;;4972060;28;20797;-72
2022/07/09 09:51:51;;;;;;;0.00;0.00;;;24.20;94.00;;;;;;4956213;28;20391;-71
2022/07/09 09:54:19;;;;;;;0.03;0.03;;;24.20;94.20;;;;;;4956665;28;20030;-72
2022/07/09 09:56:45;;;;;;;0.52;0.52;;;24.40;94.30;;;;;;4973289;28;20062;-71
2022/07/09 09:59:12;;;;;;;0.30;0.20;;;24.50;94.10;;;;;;4955768;28;20054;-72
2022/07/09 10:01:40;;;;;;;0.13;0.13;;;24.80;93.90;;;;;;4972238;28;20031;-71
2022/07/09 10:04:06;;;;;;;0.15;0.15;;;24.90;93.50;;;;;;4956194;28;20050;-73
2022/07/09 10:06:34;;;;;;;0.30;0.30;;;24.80;93.50;;;;;;4972399;28;20046;-72
2022/07/09 10:09:03;;;;;;;0.28;0.20;;;25.10;93.10;;;;;;4973044;28;20019;-72
2022/07/09 10:11:43;;;;;;;1.77;0.25;;;25.30;93.00;;;;;;4956297;28;20038;-71
2022/07/09 10:14:17;;;;;;;0.00;0.00;;;25.70;92.10;;;;;;4989935;23;20491;-74
2022/07/09 10:16:43;;;;;;;0.20;0.20;;;25.80;92.00;;;;;;4962546;28;20472;-74
2022/07/09 10:19:09;;;;;;;0.25;0.17;;;25.70;91.50;;;;;;4955832;28;20038;-74
2022/07/09 10:21:37;;;;;;;1.17;0.52;;;25.80;91.70;;;;;;4955756;28;20038;-73
2022/07/09 10:24:04;;;;;;;0.50;0.50;;;26.10;91.40;;;;;;4940233;28;20054;-73
2022/07/09 10:26:42;;;;;;;0.52;0.45;;;26.10;91.50;;;;;;4988960;28;20102;-74
2022/07/09 10:29:26;;;;;;;20.08;1.25;;;26.30;91.50;;;;;;4988368;28;20034;-74
2022/07/09 10:31:56;;;;;;;0.20;0.20;;;26.30;90.30;;;;;;4990623;28;20438;-79
2022/07/09 10:34:35;;;;;;;0.80;0.75;;;25.90;90.50;;;;;;4984415;28;20118;-74
2022/07/09 10:37:03;;;;;;;0.10;0.10;;;25.70;91.10;;;;;;4992690;28;20026;-75
2022/07/09 10:39:29;;;;;;;0.03;0.03;;;25.80;91.30;;;;;;4992328;28;20040;-75
2022/07/09 10:42:04;;;;;;;0.50;0.38;;;26.00;90.90;;;;;;4992128;28;20172;-74
2022/07/09 10:44:38;;;;;;;0.00;0.00;;;26.10;90.40;;;;;;4992392;28;20037;-75
2022/07/09 10:47:06;;;;;;;0.20;0.13;;;26.20;90.60;;;;;;4991723;28;20533;-75
2022/07/09 10:49:36;;;;;;;0.20;0.13;;;26.20;90.40;;;;;;4974549;28;20026;-74
2022/07/09 10:52:07;;;;;;;0.75;0.75;;;26.20;90.30;;;;;;4956606;28;20034;-74
2022/07/09 10:54:33;;;;;;;;;;;26.30;90.30;;;;;;4973598;28;20027;-75
2022/07/09 10:56:59;;;;;;;0.05;0.03;;;26.50;90.20;;;;;;4939223;28;20417;-75
2022/07/09 10:59:26;;;;;;;1.10;0.22;;;26.60;89.50;;;;;;4939018;28;20046;-74
2022/07/09 11:01:52;;;;;;;0.00;0.00;;;26.70;89.10;;;;;;4955133;28;20494;-73
2022/07/09 11:04:29;;;;;;;0.10;0.10;;;26.70;89.00;;;;;;4955099;28;20026;-73
2022/07/09 11:06:56;;;;;;;0.00;0.00;;;26.90;89.40;;;;;;4955211;28;20085;-74
2022/07/09 11:09:22;;;;;;;0.15;0.13;;;27.00;87.60;;;;;;4954942;28;20522;-73
2022/07/09 11:11:48;;;;;;;0.65;0.17;;;26.90;87.90;;;;;;4972332;28;20073;-73
2022/07/09 11:14:14;;;;;;;0.40;0.20;;;27.20;88.10;;;;;;4954678;28;20038;-76
2022/07/09 11:16:40;;;;;;;0.00;0.00;;;27.70;86.10;;;;;;4964798;28;20540;-74
2022/07/09 11:19:17;;;;;;;0.15;0.13;;;27.70;84.60;;;;;;4991496;28;20027;-74
2022/07/09 11:21:43;;;;;;;0.20;0.20;;;27.40;84.50;;;;;;4974234;28;20163;-73
2022/07/09 11:24:21;;;;;;;2.95;1.92;;;27.20;85.10;;;;;;4973713;28;20048;-72
2022/07/09 11:26:47;;;;;;;1.00;0.60;;;26.80;85.30;;;;;;4974060;28;20026;-72
2022/07/09 11:29:13;;;;;;;0.00;0.00;;;26.80;85.40;;;;;;4974178;28;20042;-74
2022/07/09 11:31:51;;;;;;;0.00;0.00;;;26.40;85.60;;;;;;4995349;28;20121;-73
2022/07/09 11:34:18;;;;;;;0.45;0.30;;;26.30;87.00;;;;;;4978272;28;20121;-72
2022/07/09 11:36:55;;;;;;;0.52;0.52;;;26.60;86.80;;;;;;4995250;28;20113;-73
2022/07/09 11:39:33;;;;;;;0.00;0.00;;;27.10;86.80;;;;;;4995371;28;20402;-71
2022/07/09 11:42:01;;;;;;;0.03;0.03;;;27.60;85.00;;;;;;4978770;28;20026;-72
2022/07/09 11:44:33;;;;;;;0.32;0.15;;;27.80;84.30;;;;;;4961875;28;20018;-70
2022/07/09 11:47:17;;;;;;;0.30;0.30;;;27.60;84.80;;;;;;4977999;28;20027;-71
2022/07/09 11:49:45;;;;;;;0.08;0.08;;;27.10;86.70;;;;;;4978413;28;20108;-72
2022/07/09 11:52:22;;;;;;;0.03;0.03;;;27.30;87.10;;;;;;4995479;28;20054;-71
2022/07/09 11:55:06;;;;;;;0.30;0.30;;;27.80;84.80;;;;;;4995109;28;20038;-73
2022/07/09 11:57:37;;;;;;;0.10;0.10;;;27.80;82.80;;;;;;4995040;28;20037;-73
2022/07/09 12:00:20;;;;;;;0.10;0.10;;;27.30;83.60;;;;;;4994913;28;20478;-74
2022/07/09 12:02:45;;;;;;;0.45;0.20;;;27.40;83.10;;;;;;4965487;28;20372;-74
2022/07/09 12:05:11;;;;;;;0.22;0.22;;;27.30;82.70;;;;;;4990366;28;20034;-74
2022/07/09 12:07:37;;;;;;;0.20;0.10;;;27.40;82.00;;;;;;4975794;28;20027;-78
2022/07/09 12:10:11;;;;;;;0.10;0.10;;;27.20;83.70;;;;;;4957940;28;20104;-63
2022/07/09 12:12:37;;;;;;;0.30;0.28;;;27.30;83.60;;;;;;4975350;28;20027;-63
2022/07/09 12:15:08;;;;;;;0.00;0.00;;;27.60;83.50;;;;;;4974952;28;20125;-62
2022/07/09 12:17:34;;;;;;;;;;;27.60;82.20;;;;;;4975551;28;20398;-62
2022/07/09 12:20:00;;;;;;;0.50;0.47;;;27.90;82.00;;;;;;4994246;28;19945;-64
2022/07/09 12:22:26;;;;;;;1.35;0.50;;;28.40;80.00;;;;;;4976914;28;20469;-64
2022/07/09 12:24:52;;;;;;;0.22;0.20;;;28.90;79.60;;;;;;4994530;28;20386;-64
2022/07/09 12:27:22;;;;;;;0.10;0.08;;;29.20;79.10;;;;;;4994802;28;20027;-63
2022/07/09 12:29:47;;;;;;;0.00;0.00;;;29.30;76.10;;;;;;4994461;28;20073;-63
2022/07/09 12:32:14;;;;;;;0.35;0.20;;;28.80;75.20;;;;;;4994367;28;20069;-63
2022/07/09 12:34:40;;;;;;;0.00;0.00;;;28.60;77.00;;;;;;4976891;28;20034;-63
2022/07/09 12:37:05;;;;;;;0.82;0.28;;;28.30;75.20;;;;;;4976626;28;20071;-63
2022/07/09 12:39:31;;;;;;;0.38;0.32;;;28.40;75.30;;;;;;4994157;28;20030;-63
2022/07/09 12:41:58;;;;;;;0.00;0.00;;;28.40;75.30;;;;;;4975311;28;20026;-63
2022/07/09 12:44:24;;;;;;;0.57;0.52;;;28.20;76.50;;;;;;4993925;28;20034;-63
2022/07/09 12:46:54;;;;;;;0.00;0.00;;;28.10;75.20;;;;;;4994284;28;20029;-64